Time;durP1;ratioP1;P1;durP2;ratioP2;P2;SDS_P1;SDS_P2;PMS_P1;PMS_P2;Temp;Humidity;BMP_temperature;BMP_pressure;BME280_temperature;BME280_humidity;BME280_pressure;Samples;Min_cycle;Max_cycle;Signal;HPM_P1;HPM_P2
2023/06/15 00:00:57;;;;;;;10.75;8.00;;;;;;;16.21;100.00;63675.91;5062787;28;20200;-75
2023/06/15 00:03:26;;;;;;;9.65;8.65;;;;;;;16.05;100.00;63656.69;5066508;28;20193;-74
2023/06/15 00:05:53;;;;;;;9.52;8.32;;;;;;;16.03;100.00;63652.56;5064880;28;20508;-74
2023/06/15 00:08:20;;;;;;;11.10;8.90;;;;;;;16.18;100.00;63675.34;5059852;28;20201;-75
2023/06/15 00:10:47;;;;;;;9.00;8.10;;;;;;;16.24;100.00;63679.00;5059573;28;20235;-76
2023/06/15 00:13:15;;;;;;;10.23;8.13;;;;;;;16.24;100.00;63675.94;5065326;28;20197;-76
2023/06/15 00:15:41;;;;;;;10.05;8.70;;;;;;;16.12;100.00;63669.09;5065256;28;20201;-75
2023/06/15 00:18:08;;;;;;;11.57;9.30;;;;;;;16.13;100.00;63667.59;5053734;28;20228;-75
2023/06/15 00:20:37;;;;;;;12.00;9.07;;;;;;;16.27;100.00;63679.59;5065176;28;20239;-76
2023/06/15 00:23:04;;;;;;;10.75;9.65;;;;;;;16.33;100.00;63685.28;5063840;28;20205;-75
2023/06/15 00:25:33;;;;;;;12.00;9.32;;;;;;;16.29;100.00;63679.06;5065257;28;20263;-75
2023/06/15 00:28:00;;;;;;;10.68;9.57;;;;;;;16.29;100.00;63681.13;5065376;28;20323;-74
2023/06/15 00:30:27;;;;;;;11.65;9.52;;;;;;;16.35;100.00;63687.38;5061984;28;20439;-74
2023/06/15 00:32:54;;;;;;;11.43;10.23;;;;;;;16.31;100.00;63683.22;5049923;28;20208;-76
2023/06/15 00:35:22;;;;;;;11.25;8.88;;;;;;;16.40;100.00;63687.44;5058481;28;20224;-74
2023/06/15 00:37:50;;;;;;;10.00;8.45;;;;;;;16.33;100.00;63688.38;5058056;28;20414;-75
2023/06/15 00:40:18;;;;;;;14.20;9.32;;;;;;;16.37;100.00;63687.41;5066447;28;20414;-76
2023/06/15 00:42:45;;;;;;;11.57;8.70;;;;;;;16.45;100.00;63697.75;5064576;28;20216;-75
2023/06/15 00:45:12;;;;;;;14.25;9.32;;;;;;;16.46;100.00;63701.94;5064210;28;20402;-74
2023/06/15 00:47:42;;;;;;;11.75;9.60;;;;;;;16.54;100.00;63709.72;5074426;28;20201;-75
2023/06/15 00:50:10;;;;;;;10.02;8.80;;;;;;;16.55;100.00;63710.78;5065078;28;20240;-75
2023/06/15 00:52:38;;;;;;;11.38;10.18;;;;;;;16.54;100.00;63709.72;5060045;28;20217;-75
2023/06/15 00:55:11;;;;;;;11.88;9.68;;;;;;;16.41;100.00;63696.69;5064527;28;20216;-76
2023/06/15 00:57:44;;;;;;;12.25;9.82;;;;;;;16.41;100.00;63694.13;5060132;28;20207;-76
2023/06/15 01:00:12;;;;;;;12.13;8.88;;;;;;;16.46;100.00;63701.38;5063219;28;20299;-76
2023/06/15 01:02:40;;;;;;;11.20;8.77;;;;;;;16.51;100.00;63709.19;5064842;28;20264;-74
2023/06/15 01:05:10;;;;;;;10.68;9.68;;;;;;;16.52;100.00;63708.16;5064994;28;20424;-75
2023/06/15 01:07:40;;;;;;;10.43;9.43;;;;;;;16.54;100.00;63709.72;5061037;28;20208;-75
2023/06/15 01:10:11;;;;;;;9.48;8.55;;;;;;;16.49;100.00;63701.97;5063675;28;20266;-74
2023/06/15 01:12:40;;;;;;;9.48;8.57;;;;;;;16.55;100.00;63711.28;5065640;28;20201;-73
2023/06/15 01:15:08;;;;;;;10.77;8.98;;;;;;;16.52;100.00;63703.03;5061698;28;20255;-74
2023/06/15 01:17:35;;;;;;;9.40;8.50;;;;;;;16.55;100.00;63711.28;5064055;28;20238;-74
2023/06/15 01:20:08;;;;;;;9.57;8.68;;;;;;;16.57;100.00;63710.28;5064513;28;20546;-74
2023/06/15 01:22:49;;;;;;;9.00;8.10;;;;;;;16.53;100.00;63706.63;5064919;28;20216;-73
2023/06/15 01:25:29;;;;;;;10.13;9.13;;;;;;;16.54;100.00;63707.69;5059129;28;20270;-75
2023/06/15 01:28:01;;;;;;;10.48;9.27;;;;;;;16.54;100.00;63707.16;5065163;28;20216;-75
2023/06/15 01:30:29;;;;;;;12.63;9.35;;;;;;;16.53;100.00;63709.19;5057776;28;20241;-73
2023/06/15 01:32:56;;;;;;;9.82;8.88;;;;;;;16.55;100.00;63706.13;5044739;28;20264;-74
2023/06/15 01:35:23;;;;;;;11.55;9.68;;;;;;;16.50;100.00;63708.66;5065819;28;20218;-73
2023/06/15 01:37:50;;;;;;;11.40;9.82;;;;;;;16.48;100.00;63698.34;5063942;28;20218;-74
2023/06/15 01:40:17;;;;;;;10.82;9.75;;;;;;;16.46;100.00;63701.38;5057615;28;20225;-74
2023/06/15 01:42:46;;;;;;;10.45;9.45;;;;;;;16.46;100.00;63696.78;5062742;28;20239;-73
2023/06/15 01:45:15;;;;;;;10.10;9.10;;;;;;;16.42;100.00;63695.19;5065412;28;20216;-75
2023/06/15 01:47:44;;;;;;;10.05;9.00;;;;;;;16.40;100.00;63692.56;5064363;28;20195;-73
2023/06/15 01:50:12;;;;;;;9.75;8.77;;;;;;;16.35;100.00;63687.91;5066075;28;20382;-74
2023/06/15 01:52:40;;;;;;;10.15;9.15;;;;;;;16.29;100.00;63684.22;5067913;28;20448;-75
2023/06/15 01:55:08;;;;;;;10.48;9.50;;;;;;;16.34;100.00;63686.34;5067048;28;20219;-73
2023/06/15 01:57:38;;;;;;;10.63;9.52;;;;;;;16.35;100.00;63685.31;5061517;28;20192;-74
2023/06/15 02:00:07;;;;;;;10.32;9.30;;;;;;;16.34;100.00;63681.72;5083475;28;20254;-75
2023/06/15 02:02:37;;;;;;;9.68;8.77;;;;;;;16.35;100.00;63687.91;5071627;28;20543;-73
2023/06/15 02:05:05;;;;;;;9.57;8.63;;;;;;;16.33;100.00;63682.72;5068291;28;20409;-74
2023/06/15 02:07:33;;;;;;;12.60;9.98;;;;;;;16.27;100.00;63677.00;5061516;28;20276;-74
2023/06/15 02:10:00;;;;;;;11.02;9.63;;;;;;;16.28;100.00;63680.59;5061429;28;20232;-74
2023/06/15 02:12:27;;;;;;;12.60;9.95;;;;;;;16.29;100.00;63686.78;5066608;28;20516;-73
2023/06/15 02:14:54;;;;;;;10.63;8.32;;;;;;;16.28;100.00;63685.75;5067302;28;20227;-75
2023/06/15 02:17:20;;;;;;;9.98;8.85;;;;;;;16.23;100.00;63672.31;5068014;28;20509;-74
2023/06/15 02:19:49;;;;;;;12.23;9.43;;;;;;;16.14;100.00;63671.72;5066995;28;20231;-75
2023/06/15 02:22:16;;;;;;;10.68;9.30;;;;;;;16.13;100.00;63662.44;5061748;28;20201;-74
2023/06/15 02:24:43;;;;;;;10.63;9.45;;;;;;;16.14;100.00;63664.00;5067139;28;20254;-73
2023/06/15 02:27:12;;;;;;;12.40;10.43;;;;;;;16.14;100.00;63671.19;5066875;28;20197;-74
2023/06/15 02:29:39;;;;;;;12.57;8.88;;;;;;;16.13;100.00;63665.53;5063248;28;20233;-73
2023/06/15 02:32:07;;;;;;;10.75;9.20;;;;;;;16.15;100.00;63667.59;5066599;28;20197;-73
2023/06/15 02:34:34;;;;;;;15.20;11.23;;;;;;;16.05;100.00;63662.34;5071064;28;20543;-73
2023/06/15 02:37:02;;;;;;;12.55;10.43;;;;;;;16.06;100.00;63655.69;5064374;28;20223;-73
2023/06/15 02:39:29;;;;;;;11.23;10.07;;;;;;;16.13;100.00;63662.44;5064543;28;20225;-73
2023/06/15 02:41:56;;;;;;;15.10;9.25;;;;;;;16.13;100.00;63670.16;5067528;28;20196;-74
2023/06/15 02:44:23;;;;;;;11.65;10.45;;;;;;;16.12;100.00;63664.50;5066697;28;20247;-72
2023/06/15 02:46:50;;;;;;;10.40;9.50;;;;;;;16.16;100.00;63665.56;5064291;28;20201;-73
2023/06/15 02:49:19;;;;;;;14.02;10.68;;;;;;;16.14;100.00;63671.19;5053929;28;20316;-74
2023/06/15 02:51:45;;;;;;;11.95;9.70;;;;;;;16.13;100.00;63668.09;5063921;28;20264;-74
2023/06/15 02:54:14;;;;;;;10.35;9.15;;;;;;;16.20;100.00;63677.94;5065195;28;20212;-72
2023/06/15 02:56:41;;;;;;;13.45;10.00;;;;;;;16.10;100.00;63664.97;5052244;28;20209;-74
2023/06/15 02:59:09;;;;;;;15.75;10.07;;;;;;;16.15;100.00;63669.66;5067391;28;20226;-73
2023/06/15 03:01:38;;;;;;;11.10;10.00;;;;;;;16.19;100.00;63674.34;5086219;28;20227;-75
2023/06/15 03:04:09;;;;;;;11.30;10.20;;;;;;;16.21;100.00;63675.91;5072514;28;20222;-75
2023/06/15 03:06:36;;;;;;;10.55;9.52;;;;;;;16.25;100.00;63679.53;5052865;28;20213;-73
2023/06/15 03:09:04;;;;;;;13.05;10.18;;;;;;;16.33;100.00;63683.25;5046519;28;20448;-74
2023/06/15 03:11:32;;;;;;;10.40;9.30;;;;;;;16.37;100.00;63689.97;5051398;28;20264;-74
2023/06/15 03:13:59;;;;;;;11.32;10.13;;;;;;;16.42;100.00;63692.59;5061821;28;20233;-76
2023/06/15 03:16:26;;;;;;;13.05;10.23;;;;;;;16.50;100.00;63708.16;5064336;28;20197;-74
2023/06/15 03:18:53;;;;;;;14.82;10.90;;;;;;;16.52;100.00;63710.22;5063064;28;20220;-75
2023/06/15 03:21:22;;;;;;;10.45;9.45;;;;;;;16.54;100.00;63705.09;5064524;28;20205;-74
2023/06/15 03:23:50;;;;;;;10.57;8.57;;;;;;;16.52;100.00;63705.06;5050272;28;20371;-76
2023/06/15 03:26:17;;;;;;;12.05;9.73;;;;;;;16.30;100.00;63679.59;5071017;28;20520;-72
2023/06/15 03:28:46;;;;;;;11.48;10.23;;;;;;;16.36;100.00;63686.34;5075805;28;20224;-73
2023/06/15 03:31:17;;;;;;;11.90;9.43;;;;;;;16.45;100.00;63698.28;5065241;28;20566;-73
2023/06/15 03:33:44;;;;;;;12.35;9.98;;;;;;;16.52;100.00;63700.47;5061530;28;20243;-74
2023/06/15 03:36:13;;;;;;;11.05;10.02;;;;;;;16.60;100.00;63716.50;5064134;28;20193;-75
2023/06/15 03:38:41;;;;;;;10.68;9.68;;;;;;;16.67;100.00;63718.13;5065447;28;20280;-73
2023/06/15 03:41:08;;;;;;;9.75;8.85;;;;;;;16.74;100.00;63725.91;5066525;28;20208;-76
2023/06/15 03:43:37;;;;;;;9.23;8.32;;;;;;;16.72;100.00;63728.47;5061002;28;20228;-74
2023/06/15 03:46:05;;;;;;;10.50;9.40;;;;;;;16.81;100.00;63735.78;5057996;28;20208;-74
2023/06/15 03:48:32;;;;;;;11.52;8.85;;;;;;;16.87;100.00;63749.75;5064087;28;20250;-75
2023/06/15 03:50:59;;;;;;;9.93;8.95;;;;;;;16.95;100.00;63747.25;5067968;28;20224;-73
2023/06/15 03:53:26;;;;;;;10.32;8.32;;;;;;;16.98;100.00;63755.53;5063240;28;20416;-73
2023/06/15 03:55:53;;;;;;;9.45;8.55;;;;;;;16.99;100.00;63751.41;5048017;28;20217;-73
2023/06/15 03:58:20;;;;;;;9.68;8.77;;;;;;;17.01;100.00;63756.59;5069068;28;20220;-74
2023/06/15 04:00:47;;;;;;;10.70;8.40;;;;;;;17.01;100.00;63761.75;5065444;28;20209;-73
2023/06/15 04:03:16;;;;;;;12.45;9.13;;;;;;;16.94;100.00;63751.88;5060325;28;20200;-73
2023/06/15 04:05:43;;;;;;;11.95;10.13;;;;;;;17.03;100.00;63758.16;5064182;28;20387;-74
2023/06/15 04:08:10;;;;;;;9.60;8.63;;;;;;;17.13;100.00;63768.56;5055404;28;20236;-74
2023/06/15 04:10:37;;;;;;;10.32;9.23;;;;;;;17.28;100.00;63786.75;5063478;28;20241;-74
2023/06/15 04:13:06;;;;;;;10.68;9.63;;;;;;;17.44;100.00;63800.31;5064477;28;20209;-75
2023/06/15 04:15:32;;;;;;;11.25;9.70;;;;;;;17.55;100.00;63812.28;5058208;28;20256;-73
2023/06/15 04:18:00;;;;;;;12.82;9.55;;;;;;;17.67;100.00;63824.78;5054447;28;20208;-73
2023/06/15 04:20:30;;;;;;;10.23;9.07;;;;;;;17.74;100.00;63834.16;5062965;28;20246;-74
2023/06/15 04:22:58;;;;;;;12.30;9.40;;;;;;;17.76;100.00;63833.63;5065149;28;20181;-74
2023/06/15 04:25:27;;;;;;;12.35;8.55;;;;;;;17.52;100.00;63806.06;5064053;28;20541;-75
2023/06/15 04:27:54;;;;;;;10.57;9.48;;;;;;;17.46;100.00;63799.81;5062238;28;20501;-75
2023/06/15 04:30:24;;;;;;;10.52;8.63;;;;;;;17.47;100.00;63806.53;5066332;28;20277;-75
2023/06/15 04:32:57;;;;;;;9.70;8.80;;;;;;;17.47;100.00;63808.59;5062357;28;20200;-76
2023/06/15 04:35:24;;;;;;;9.73;8.73;;;;;;;17.59;100.00;63815.94;5053640;28;20248;-74
2023/06/15 04:37:53;;;;;;;11.68;8.85;;;;;;;17.68;100.00;63822.75;5045248;28;20205;-74
2023/06/15 04:40:21;;;;;;;9.95;8.93;;;;;;;17.60;100.00;63817.50;5045687;28;20237;-75
2023/06/15 04:42:48;;;;;;;12.15;8.93;;;;;;;17.85;100.00;63840.44;5046431;28;20190;-73
2023/06/15 04:45:15;;;;;;;13.27;10.13;;;;;;;18.03;100.00;63861.78;5045743;28;20275;-74
2023/06/15 04:47:42;;;;;;;10.93;8.93;;;;;;;18.34;100.00;63899.22;5066798;28;20499;-74
2023/06/15 04:50:13;;;;;;;9.32;8.43;;;;;;;18.42;100.00;63902.41;5075424;28;20216;-75
2023/06/15 04:52:40;;;;;;;11.00;9.25;;;;;;;18.24;100.00;63881.59;5075239;28;20397;-75
2023/06/15 04:55:10;;;;;;;11.20;9.77;;;;;;;18.18;100.00;63880.50;5066300;28;20231;-74
2023/06/15 04:57:37;;;;;;;11.05;9.15;;;;;;;18.11;100.00;63870.09;5050953;28;20220;-75
2023/06/15 05:00:07;;;;;;;10.02;9.15;;;;;;;18.00;100.00;63854.00;5064143;28;20243;-76
2023/06/15 05:02:34;;;;;;;12.43;10.27;;;;;;;17.89;100.00;63850.28;5065871;28;20259;-75
2023/06/15 05:05:01;;;;;;;11.95;9.80;;;;;;;17.91;100.00;63852.34;5060849;28;20218;-76
2023/06/15 05:07:28;;;;;;;14.05;11.57;;;;;;;17.99;100.00;63860.19;5053437;28;20202;-74
2023/06/15 05:09:55;;;;;;;15.52;12.13;;;;;;;17.96;100.00;63859.63;5064391;28;20311;-74
2023/06/15 05:12:23;;;;;;;14.60;12.80;;;;;;;17.95;100.00;63856.00;5064456;28;20308;-73
2023/06/15 05:14:51;;;;;;;12.40;10.82;;;;;;;18.06;100.00;63865.41;5062875;28;20220;-74
2023/06/15 05:17:19;;;;;;;13.45;12.13;;;;;;;17.91;100.00;63846.69;5061390;28;20204;-75
2023/06/15 05:19:46;;;;;;;14.65;13.10;;;;;;;17.88;100.00;63846.13;5064042;28;20239;-75
2023/06/15 05:22:13;;;;;;;14.52;11.70;;;;;;;17.85;100.00;63845.59;5062530;28;20242;-74
2023/06/15 05:24:40;;;;;;;13.63;11.93;;;;;;;17.97;100.00;63858.09;5059202;28;20234;-74
2023/06/15 05:27:08;;;;;;;14.65;13.13;;;;;;;18.06;100.00;63862.84;5056256;28;20204;-74
2023/06/15 05:29:37;;;;;;;16.20;12.93;;;;;;;17.95;100.00;63853.97;5065481;28;20271;-74
2023/06/15 05:32:04;;;;;;;19.20;14.65;;;;;;;17.92;100.00;63853.41;5065128;28;20225;-76
2023/06/15 05:34:31;;;;;;;17.52;13.85;;;;;;;18.01;100.00;63857.13;5043964;28;20239;-74
2023/06/15 05:36:58;;;;;;;16.38;13.75;;;;;;;18.08;100.00;63872.13;5061985;28;20204;-74
2023/06/15 05:39:25;;;;;;;16.65;13.82;;;;;;;18.05;100.00;63863.88;5065189;28;20215;-75
2023/06/15 05:41:52;;;;;;;18.10;13.13;;;;;;;18.03;100.00;63862.28;5058481;28;20282;-74
2023/06/15 05:44:19;;;;;;;17.70;13.50;;;;;;;18.08;100.00;63869.56;5061276;28;20216;-75
2023/06/15 05:46:47;;;;;;;17.35;14.48;;;;;;;18.19;100.00;63878.44;5053381;28;20201;-75
2023/06/15 05:49:15;;;;;;;17.63;15.23;;;;;;;18.33;100.00;63890.44;5043482;28;20459;-74
2023/06/15 05:51:41;;;;;;;17.83;14.70;;;;;;;18.43;100.00;63901.41;5043742;28;20303;-73
2023/06/15 05:54:08;;;;;;;20.38;15.90;;;;;;;18.50;100.00;63910.75;5052317;28;20224;-74
2023/06/15 05:56:35;;;;;;;21.88;17.55;;;;;;;18.43;100.00;63906.03;5048203;28;20209;-74
2023/06/15 05:59:02;;;;;;;19.92;15.93;;;;;;;18.42;100.00;63905.00;5073903;28;20212;-73
2023/06/15 06:01:29;;;;;;;21.60;16.48;;;;;;;18.61;100.00;63924.81;5086219;28;20196;-74
2023/06/15 06:03:57;;;;;;;22.77;18.10;;;;;;;18.71;100.00;63935.22;5056512;28;20224;-75
2023/06/15 06:06:24;;;;;;;23.23;17.33;;;;;;;18.77;100.00;63940.97;5058070;28;20200;-76
2023/06/15 06:08:51;;;;;;;20.67;15.70;;;;;;;18.88;100.00;63950.34;5063610;28;20224;-75
2023/06/15 06:11:18;;;;;;;20.08;14.38;;;;;;;19.08;100.00;63968.63;5063820;28;20289;-74
2023/06/15 06:13:45;;;;;;;18.90;15.68;;;;;;;19.18;100.00;63986.81;5055551;28;20221;-73
2023/06/15 06:16:14;;;;;;;20.40;15.43;;;;;;;19.07;100.00;63972.75;5051466;28;20193;-75
2023/06/15 06:18:41;;;;;;;16.90;15.13;;;;;;;19.08;100.00;63973.28;5062918;28;20213;-74
2023/06/15 06:21:09;;;;;;;18.70;14.52;;;;;;;18.96;100.00;63953.53;5061297;28;20201;-76
2023/06/15 06:23:36;;;;;;;16.25;13.45;;;;;;;18.88;100.00;63955.53;5063327;28;20227;-74
2023/06/15 06:26:04;;;;;;;17.05;13.18;;;;;;;19.03;100.00;63962.91;5064364;28;20225;-74
2023/06/15 06:28:36;;;;;;;16.30;13.95;;;;;;;19.09;100.00;63972.25;5054628;28;20247;-74
2023/06/15 06:31:03;;;;;;;17.48;14.00;;;;;;;18.91;100.00;63958.66;5057913;28;20533;-74
2023/06/15 06:33:30;;;;;;;17.55;14.65;;;;;;;19.23;100.00;63986.31;5065240;28;20197;-74
2023/06/15 06:35:57;;;;;;;19.75;14.38;;;;;;;19.27;100.00;63998.25;5066949;28;20192;-74
2023/06/15 06:38:25;;;;;;;19.27;12.95;;;;;;;18.90;100.00;63952.44;5060860;28;20196;-74
2023/06/15 06:40:52;;;;;;;18.85;14.63;;;;;;;19.10;100.00;63978.44;5062513;28;20201;-73
2023/06/15 06:43:19;;;;;;;17.85;14.35;;;;;;;19.10;100.00;63972.78;5066199;28;20501;-76
2023/06/15 06:45:46;;;;;;;20.95;13.43;;;;;;;19.25;100.00;63985.84;5067453;28;20200;-74
2023/06/15 06:48:13;;;;;;;19.58;13.57;;;;;;;19.28;100.00;63997.22;5066411;28;20213;-74
2023/06/15 06:50:40;;;;;;;15.85;13.90;;;;;;;19.57;100.00;64021.81;5061514;28;20405;-74
2023/06/15 06:53:06;;;;;;;14.82;12.80;;;;;;;19.72;100.00;64039.50;5066599;28;20197;-74
2023/06/15 06:55:35;;;;;;;17.42;12.85;;;;;;;19.74;100.00;64036.97;5068486;28;20217;-76
2023/06/15 06:58:02;;;;;;;15.68;12.40;;;;;;;19.63;100.00;64024.97;5062604;28;20213;-73
2023/06/15 07:00:30;;;;;;;15.77;12.93;;;;;;;19.56;100.00;64020.75;5048201;28;20225;-72
2023/06/15 07:02:58;;;;;;;14.68;13.18;;;;;;;19.51;100.00;64015.56;5047690;28;20235;-76
2023/06/15 07:05:25;;;;;;;16.63;13.05;;;;;;;19.45;100.00;64009.81;5054337;28;20228;-74
2023/06/15 07:07:52;;;;;;;19.88;14.13;;;;;;;19.45;100.00;64011.88;5066047;28;20493;-74
2023/06/15 07:10:19;;;;;;;15.10;13.43;;;;;;;19.40;100.00;64006.66;5061380;28;20217;-75
2023/06/15 07:12:47;;;;;;;18.05;14.02;;;;;;;19.29;100.00;63990.00;5066773;28;20255;-75
2023/06/15 07:15:15;;;;;;;17.92;14.43;;;;;;;19.10;100.00;63975.38;5069739;28;20221;-74
2023/06/15 07:17:42;;;;;;;19.27;15.65;;;;;;;19.11;100.00;63976.41;5064430;28;20242;-76
2023/06/15 07:20:09;;;;;;;19.23;15.50;;;;;;;19.22;100.00;63988.38;5062007;28;20258;-74
2023/06/15 07:22:36;;;;;;;17.70;15.50;;;;;;;19.36;100.00;64002.50;5066266;28;20250;-75
2023/06/15 07:25:03;;;;;;;19.75;14.80;;;;;;;19.59;100.00;64021.31;5064308;28;20209;-76
2023/06/15 07:27:30;;;;;;;21.73;14.98;;;;;;;19.91;100.00;64054.69;5066335;28;20200;-77
2023/06/15 07:29:59;;;;;;;16.77;14.75;;;;;;;20.24;100.00;64091.72;5066616;28;20220;-75
2023/06/15 07:32:25;;;;;;;18.40;15.35;;;;;;;20.34;100.00;64102.16;5062498;28;20239;-75
2023/06/15 07:34:53;;;;;;;19.35;13.93;;;;;;;20.38;100.00;64103.25;5064710;28;20221;-75
2023/06/15 07:37:20;;;;;;;16.20;13.80;;;;;;;20.46;100.00;64114.69;5066134;28;20420;-73
2023/06/15 07:39:47;;;;;;;17.83;13.93;;;;;;;20.38;100.00;64106.34;5054325;28;20259;-74
2023/06/15 07:42:14;;;;;;;16.13;14.35;;;;;;;20.57;100.00;64125.66;5045749;28;20236;-76
2023/06/15 07:44:41;;;;;;;16.98;13.25;;;;;;;20.51;100.00;64119.91;5056036;28;20399;-77
2023/06/15 07:47:10;;;;;;;18.40;14.13;;;;;;;20.44;100.00;64104.31;5056794;28;20235;-74
2023/06/15 07:49:37;;;;;;;19.00;14.30;;;;;;;20.55;100.00;64124.06;5046171;28;20467;-75
2023/06/15 07:52:04;;;;;;;16.27;13.82;;;;;;;20.55;100.00;64126.16;5046877;28;20240;-76
2023/06/15 07:54:31;;;;;;;18.70;14.50;;;;;;;20.37;100.00;64110.47;5065492;28;20408;-74
2023/06/15 07:56:58;;;;;;;18.75;13.80;;;;;;;20.44;100.00;64114.66;5066024;28;20196;-75
2023/06/15 07:59:25;;;;;;;22.35;14.35;;;;;;;20.39;100.00;64112.03;5078112;28;20219;-73
2023/06/15 08:01:52;;;;;;;18.70;15.02;;;;;;;20.65;100.00;64131.41;5077295;28;20234;-75
2023/06/15 08:04:20;;;;;;;18.63;14.63;;;;;;;20.85;100.00;64154.34;5064855;28;20216;-73
2023/06/15 08:06:47;;;;;;;16.08;14.20;;;;;;;21.04;100.00;64172.13;5065055;28;20209;-74
2023/06/15 08:09:15;;;;;;;16.75;13.55;;;;;;;21.32;100.00;64203.44;5065419;28;20224;-74
2023/06/15 08:11:43;;;;;;;15.90;12.95;;;;;;;21.36;100.00;64213.34;5065349;28;20225;-74
2023/06/15 08:14:09;;;;;;;14.15;12.75;;;;;;;21.30;100.00;64201.34;5066110;28;20223;-73
2023/06/15 08:16:36;;;;;;;15.20;11.70;;;;;;;21.46;100.00;64218.59;5065182;28;20200;-74
2023/06/15 08:19:03;;;;;;;14.38;12.88;;;;;;;21.78;100.00;64254.63;5045033;28;20221;-76
2023/06/15 08:21:32;;;;;;;15.40;13.40;;;;;;;22.07;100.00;64281.81;5044522;28;20532;-73
2023/06/15 08:23:59;;;;;;;14.38;12.98;;;;;;;22.23;100.00;64298.53;5046106;28;20259;-75
2023/06/15 08:26:27;;;;;;;14.82;12.80;;;;;;;22.43;100.00;64322.06;5065416;28;20200;-76
2023/06/15 08:28:54;;;;;;;16.08;12.80;;;;;;;22.38;100.00;64316.81;5065961;28;20228;-75
2023/06/15 08:31:21;;;;;;;14.00;12.63;;;;;;;22.59;100.00;64340.88;5065284;28;20235;-74
2023/06/15 08:33:48;;;;;;;12.85;11.63;;;;;;;22.67;100.00;64346.63;5065141;28;20234;-73
2023/06/15 08:36:15;;;;;;;14.93;12.20;;;;;;;22.71;100.00;64348.75;5064861;28;20212;-75
2023/06/15 08:38:43;;;;;;;13.68;12.30;;;;;;;22.75;100.00;64350.34;5062642;28;20237;-74
2023/06/15 08:41:12;;;;;;;12.52;11.32;;;;;;;22.98;100.00;64373.34;5064682;28;20200;-74
2023/06/15 08:43:43;;;;;;;13.63;11.40;;;;;;;23.28;100.00;64407.34;5064994;28;20223;-74
2023/06/15 08:46:11;;;;;;;12.30;11.05;;;;;;;23.24;100.00;64406.25;5065142;28;20260;-75
2023/06/15 08:48:39;;;;;;;11.82;10.80;;;;;;;23.40;100.00;64419.88;5063436;28;20418;-75
2023/06/15 08:51:09;;;;;;;11.10;10.00;;;;;;;23.33;100.00;64415.16;5064122;28;20260;-77
2023/06/15 08:53:38;;;;;;;11.68;10.55;;;;;;;23.13;100.00;64389.00;5064952;28;20267;-74
2023/06/15 08:56:11;;;;;;;11.98;9.98;;;;;;;22.92;100.00;64370.16;5063165;28;20216;-75
2023/06/15 08:58:40;;;;;;;11.13;10.13;;;;;;;22.94;100.00;64372.28;5064784;28;20256;-75
2023/06/15 09:01:08;;;;;;;11.70;10.63;;;;;;;22.79;100.00;64357.13;5065143;28;20203;-74
2023/06/15 09:03:36;;;;;;;11.73;10.63;;;;;;;22.57;100.00;64334.09;5064907;28;20504;-76
2023/06/15 09:06:04;;;;;;;10.80;9.85;;;;;;;22.27;100.00;64302.72;5064399;28;20204;-75
2023/06/15 09:08:32;;;;;;;10.35;9.45;;;;;;;22.18;100.00;64295.38;5065563;28;20197;-79
2023/06/15 09:11:09;;;;;;;10.88;9.88;;;;;;;21.64;100.00;64234.28;5065487;28;20359;-77
2023/06/15 09:13:36;;;;;;;11.88;10.75;;;;;;;21.59;100.00;64231.66;5051759;28;20295;-74
2023/06/15 09:16:05;;;;;;;14.70;10.52;;;;;;;21.65;100.00;64243.09;5063414;28;20215;-74
2023/06/15 09:18:44;;;;;;;10.90;9.90;;;;;;;21.53;100.00;64228.50;5050724;28;20201;-72
2023/06/15 09:21:13;;;;;;;11.40;10.40;;;;;;;21.36;100.00;64210.75;5062296;28;20438;-74
2023/06/15 09:23:44;;;;;;;11.73;10.48;;;;;;;21.39;100.00;64210.75;5061913;28;20224;-73
2023/06/15 09:26:22;;;;;;;12.52;11.32;;;;;;;21.09;100.00;64176.84;5052668;28;20239;-74
2023/06/15 09:28:52;;;;;;;10.73;9.77;;;;;;;20.82;100.00;64151.75;5045726;28;20221;-76
2023/06/15 09:31:32;;;;;;;11.82;10.75;;;;;;;20.52;100.00;64123.53;5044651;28;20197;-76
2023/06/15 09:34:06;;;;;;;12.52;11.32;;;;;;;20.28;100.00;64095.38;5059630;28;20363;-74
2023/06/15 09:36:40;;;;;;;12.55;11.32;;;;;;;20.02;100.00;64070.81;5053446;28;20226;-75
2023/06/15 09:39:09;;;;;;;13.43;12.00;;;;;;;19.67;100.00;64031.72;5062287;28;20220;-77
2023/06/15 09:41:52;;;;;;;22.65;15.27;;;;;;;19.35;100.00;64001.44;5056917;28;20197;-77
2023/06/15 09:44:21;;;;;;;18.15;14.77;;;;;;;19.27;100.00;63985.88;5052715;28;20217;-78
2023/06/15 09:46:51;;;;;;;19.73;16.50;;;;;;;19.10;100.00;63970.72;5052843;28;20212;-81
2023/06/15 09:49:23;;;;;;;23.75;16.63;;;;;;;19.08;100.00;63970.69;5055327;28;20237;-79
2023/06/15 09:51:51;;;;;;;21.20;15.82;;;;;;;19.01;100.00;63966.50;5055194;28;20220;-79
2023/06/15 09:54:20;;;;;;;19.42;15.15;;;;;;;18.98;100.00;63960.78;5054502;28;20233;-79
2023/06/15 09:56:50;;;;;;;19.33;15.70;;;;;;;18.96;100.00;63956.13;5054641;28;20193;-78
2023/06/15 09:59:18;;;;;;;21.42;15.98;;;;;;;18.99;100.00;63963.88;5056856;28;20280;-79
2023/06/15 10:01:48;;;;;;;19.30;14.95;;;;;;;19.04;100.00;63966.50;5053268;28;20291;-77
2023/06/15 10:04:18;;;;;;;20.05;16.73;;;;;;;19.09;100.00;63969.69;5055191;28;20221;-79
2023/06/15 10:06:48;;;;;;;22.33;16.13;;;;;;;19.22;100.00;63985.28;5052155;28;20190;-77
2023/06/15 10:09:22;;;;;;;19.13;15.82;;;;;;;19.19;100.00;63980.09;5057562;28;20532;-76
2023/06/15 10:11:56;;;;;;;18.70;15.70;;;;;;;19.04;100.00;63967.03;5055847;28;20230;-75
2023/06/15 10:14:29;;;;;;;20.70;15.57;;;;;;;18.87;100.00;63951.38;5065693;28;20225;-76
2023/06/15 10:17:01;;;;;;;17.75;14.93;;;;;;;18.78;100.00;63942.53;5056782;28;20212;-77
2023/06/15 10:19:30;;;;;;;23.80;17.75;;;;;;;18.71;100.00;63932.63;5055269;28;20235;-77
2023/06/15 10:21:58;;;;;;;23.13;15.57;;;;;;;18.53;100.00;63910.78;5057977;28;20197;-78
2023/06/15 10:24:26;;;;;;;29.42;17.60;;;;;;;18.32;100.00;63887.34;5058142;28;20233;-77
2023/06/15 10:26:56;;;;;;;34.72;18.60;;;;;;;18.22;100.00;63879.50;5058252;28;20396;-75
2023/06/15 10:29:36;;;;;;;33.65;18.40;;;;;;;18.13;100.00;63869.63;5060020;28;20209;-78
2023/06/15 10:32:22;;;;;;;100.85;25.23;;;;;;;18.10;100.00;63872.16;5055976;28;20574;-79
2023/06/15 10:34:56;;;;;;;22.65;17.40;;;;;;;18.18;100.00;63879.97;5058109;28;20217;-78
2023/06/15 10:37:30;;;;;;;22.65;17.38;;;;;;;18.06;100.00;63870.06;5061369;28;20225;-77
2023/06/15 10:40:05;;;;;;;26.92;17.70;;;;;;;18.12;100.00;63871.16;5065583;28;20485;-77
2023/06/15 10:42:48;;;;;;;24.98;17.40;;;;;;;18.19;100.00;63883.59;5061267;28;20197;-78
2023/06/15 10:45:29;;;;;;;23.52;15.75;;;;;;;18.30;100.00;63889.91;5058577;28;20223;-78
2023/06/15 10:47:58;;;;;;;23.63;16.70;;;;;;;18.29;100.00;63891.94;5059568;28;20254;-81
2023/06/15 10:50:26;;;;;;;18.15;15.52;;;;;;;18.11;100.00;63870.09;5054503;28;20224;-78
2023/06/15 10:52:53;;;;;;;18.85;15.60;;;;;;;17.94;100.00;63849.81;5059356;28;20229;-77
2023/06/15 10:55:24;;;;;;;27.27;17.48;;;;;;;17.95;100.00;63856.00;5051947;28;20213;-78
2023/06/15 10:58:17;;;;;;;23.58;17.33;;;;;;;18.32;100.00;63889.41;5055973;28;20205;-76
2023/06/15 11:00:44;;;;;;;22.08;17.52;;;;;;;18.64;100.00;63924.84;5059534;28;20201;-78
2023/06/15 11:03:25;;;;;;;22.50;17.85;;;;;;;18.69;100.00;63932.63;5054193;28;20205;-77
2023/06/15 11:06:07;;;;;;;22.70;17.02;;;;;;;18.84;100.00;63948.78;5056437;28;20201;-77
2023/06/15 11:08:46;;;;;;;23.33;18.20;;;;;;;19.09;100.00;63969.69;5057245;28;20196;-76
2023/06/15 11:11:14;;;;;;;26.50;18.55;;;;;;;19.30;100.00;64001.94;5057976;28;20188;-77
2023/06/15 11:14:04;;;;;;;18.73;16.33;;;;;;;19.36;100.00;63997.34;5053324;28;20248;-78
2023/06/15 11:16:33;;;;;;;21.48;17.42;;;;;;;19.45;100.00;64009.81;5051248;28;20197;-77
2023/06/15 11:19:15;;;;;;;20.10;17.15;;;;;;;19.92;100.00;64058.31;5052094;28;20231;-76